Time;durP1;ratioP1;P1;durP2;ratioP2;P2;SDS_P1;SDS_P2;PMS_P1;PMS_P2;Temp;Humidity;BMP_temperature;BMP_pressure;BME280_temperature;BME280_humidity;BME280_pressure;Samples;Min_cycle;Max_cycle;Signal;HPM_P1;HPM_P2
2023/01/02 00:01:16;;;;;;;37.87;29.57;;;;;;;5.19;65.52;96291.81;5009344;28;20222;-67
2023/01/02 00:03:41;;;;;;;39.77;29.03;;;;;;;5.14;65.82;96281.63;5010035;28;20235;-67
2023/01/02 00:06:07;;;;;;;42.33;30.43;;;;;;;5.05;65.77;96280.38;5008646;28;20211;-67
2023/01/02 00:08:32;;;;;;;41.33;30.07;;;;;;;5.05;65.83;96275.16;4999021;28;20184;-67
2023/01/02 00:10:58;;;;;;;36.37;28.97;;;;;;;5.02;65.93;96284.91;5028161;28;20218;-67
2023/01/02 00:13:23;;;;;;;35.83;29.53;;;;;;;4.99;65.68;96279.88;5013629;28;20222;-67
2023/01/02 00:15:49;;;;;;;40.63;31.13;;;;;;;5.01;65.98;96278.88;5031913;28;20226;-67
2023/01/02 00:18:14;;;;;;;38.43;31.60;;;;;;;4.86;65.86;96277.13;5007408;28;20219;-67
2023/01/02 00:20:40;;;;;;;34.53;29.47;;;;;;;4.88;65.68;96277.88;5024861;28;20243;-67
2023/01/02 00:23:06;;;;;;;41.13;30.97;;;;;;;4.90;65.71;96275.19;5019254;28;20183;-68
2023/01/02 00:25:33;;;;;;;39.47;30.97;;;;;;;4.97;65.39;96281.72;5014535;28;20214;-67
2023/01/02 00:27:59;;;;;;;38.27;30.43;;;;;;;4.99;65.02;96272.88;5011040;28;20229;-67
2023/01/02 00:30:25;;;;;;;36.83;29.70;;;;;;;4.98;65.16;96273.00;5011686;28;20227;-67
2023/01/02 00:32:51;;;;;;;30.97;27.47;;;;;;;4.85;65.83;96278.06;5022968;28;20223;-67
2023/01/02 00:35:16;;;;;;;34.57;27.67;;;;;;;4.82;66.00;96262.59;5019077;28;20186;-67
2023/01/02 00:37:41;;;;;;;35.50;30.10;;;;;;;4.78;65.97;96279.31;5015376;28;20210;-67
2023/01/02 00:40:12;;;;;;;33.47;29.20;;;;;;;4.76;66.03;96271.59;5018518;28;20217;-67
2023/01/02 00:42:41;;;;;;;35.90;30.37;;;;;;;4.64;66.68;96267.06;5010124;28;20230;-67
2023/01/02 00:45:07;;;;;;;34.13;28.70;;;;;;;4.63;66.36;96266.22;5020850;28;20229;-67
2023/01/02 00:47:33;;;;;;;38.37;32.67;;;;;;;4.52;66.20;96267.75;5000601;28;20210;-67
2023/01/02 00:49:58;;;;;;;37.77;31.83;;;;;;;4.55;66.78;96275.38;5024137;28;20190;-67
2023/01/02 00:52:23;;;;;;;41.17;35.43;;;;;;;4.54;65.97;96284.94;5012004;28;20224;-67
2023/01/02 00:54:49;;;;;;;38.47;32.77;;;;;;;4.39;66.63;96286.63;5023953;28;20231;-67
2023/01/02 00:57:14;;;;;;;38.53;31.87;;;;;;;4.29;66.67;96285.44;5015691;28;20239;-67
2023/01/02 00:59:40;;;;;;;36.43;31.60;;;;;;;4.34;66.18;96277.41;5013275;28;20194;-67
2023/01/02 01:02:05;;;;;;;44.40;34.50;;;;;;;4.38;66.42;96282.34;5016868;28;20245;-67
2023/01/02 01:04:35;;;;;;;44.90;35.93;;;;;;;4.22;67.17;96273.66;5008800;28;20290;-67
2023/01/02 01:07:00;;;;;;;44.37;35.80;;;;;;;4.26;67.25;96279.56;5016251;28;20225;-67
2023/01/02 01:09:26;;;;;;;43.17;35.00;;;;;;;4.21;66.66;96277.19;5010818;28;20226;-67
2023/01/02 01:11:51;;;;;;;41.30;35.70;;;;;;;4.07;67.89;96283.16;5011105;28;20283;-67
2023/01/02 01:14:16;;;;;;;42.43;35.90;;;;;;;4.26;66.98;96275.19;5019131;28;20286;-67
2023/01/02 01:16:42;;;;;;;39.80;34.40;;;;;;;4.42;66.31;96278.66;5004571;28;20242;-67
2023/01/02 01:19:08;;;;;;;40.77;33.17;;;;;;;4.48;66.03;96274.03;5023233;28;20231;-67
2023/01/02 01:21:33;;;;;;;39.53;32.63;;;;;;;4.32;65.88;96276.63;5017647;28;20305;-67
2023/01/02 01:23:58;;;;;;;40.23;34.27;;;;;;;4.20;66.49;96268.56;5015869;28;20234;-67
2023/01/02 01:26:24;;;;;;;40.43;34.87;;;;;;;4.25;66.86;96273.53;5025008;28;20206;-67
2023/01/02 01:28:54;;;;;;;41.73;33.43;;;;;;;4.33;66.36;96276.56;5013714;28;20279;-67
2023/01/02 01:31:21;;;;;;;41.63;33.37;;;;;;;4.44;66.54;96268.16;5021409;28;20229;-67
2023/01/02 01:33:46;;;;;;;43.80;33.93;;;;;;;4.34;68.20;96270.41;5018686;28;20223;-67
2023/01/02 01:36:15;;;;;;;43.73;33.53;;;;;;;4.50;67.84;96278.25;5009995;28;20230;-67
2023/01/02 01:38:41;;;;;;;41.40;33.07;;;;;;;4.48;67.29;96261.84;5016609;28;20697;-67
2023/01/02 01:41:08;;;;;;;44.60;36.63;;;;;;;4.47;69.21;96251.53;5012282;28;20270;-66
2023/01/02 01:43:45;;;;;;;37.50;33.13;;;;;;;4.47;67.49;96259.34;5001541;28;20223;-66
2023/01/02 01:46:14;;;;;;;40.93;33.47;;;;;;;4.40;67.02;96267.47;4995923;28;20230;-66
2023/01/02 01:48:39;;;;;;;41.83;34.30;;;;;;;4.41;67.08;96268.31;5005143;28;20241;-66
2023/01/02 01:51:05;;;;;;;43.33;36.30;;;;;;;4.36;67.38;96263.38;5008993;28;20239;-66
2023/01/02 01:53:31;;;;;;;40.90;34.60;;;;;;;4.46;68.40;96258.47;5007282;28;20190;-66
2023/01/02 01:56:01;;;;;;;42.53;35.43;;;;;;;4.40;67.64;96256.22;5007091;28;20183;-66
2023/01/02 01:58:31;;;;;;;40.37;34.37;;;;;;;4.37;67.01;96246.81;5018590;28;20318;-66
2023/01/02 02:00:57;;;;;;;43.27;34.40;;;;;;;4.33;67.34;96250.53;5015417;28;20264;-66
2023/01/02 02:03:27;;;;;;;41.30;33.10;;;;;;;4.32;67.12;96247.97;5010763;28;20222;-66
2023/01/02 02:05:54;;;;;;;38.97;32.40;;;;;;;4.33;66.96;96244.44;5011696;28;20218;-66
2023/01/02 02:08:50;;;;;;;41.37;33.60;;;;;;;4.36;67.39;96252.13;5015188;28;20187;-66
2023/01/02 02:11:17;;;;;;;42.90;34.93;;;;;;;4.41;67.39;96258.75;5011415;28;20234;-66
2023/01/02 02:13:42;;;;;;;38.47;32.03;;;;;;;4.44;66.84;96249.94;5012023;28;20227;-66
2023/01/02 02:16:14;;;;;;;40.97;34.03;;;;;;;4.29;67.00;96254.19;5025477;28;20322;-66
2023/01/02 02:19:14;;;;;;;41.17;32.50;;;;;;;4.28;66.53;96254.31;5021601;28;20222;-66
2023/01/02 02:22:10;;;;;;;37.00;32.77;;;;;;;4.22;66.77;96257.22;5019306;28;20231;-66
2023/01/02 02:25:03;;;;;;;39.57;32.90;;;;;;;4.27;66.86;96258.63;5006516;28;20227;-66
2023/01/02 02:27:39;;;;;;;40.83;33.40;;;;;;;4.25;66.65;96257.03;5026388;28;20241;-65
2023/01/02 02:30:10;;;;;;;40.97;34.13;;;;;;;4.28;66.92;96252.53;5031353;28;20581;-66
2023/01/02 02:32:53;;;;;;;44.37;36.43;;;;;;;4.31;66.99;96256.72;5009435;28;20214;-66
2023/01/02 02:35:34;;;;;;;46.80;36.93;;;;;;;4.29;67.18;96254.19;5022777;28;20202;-67
2023/01/02 02:38:27;;;;;;;39.17;33.77;;;;;;;4.20;67.45;96258.16;5017102;28;20234;-67
2023/01/02 02:41:24;;;;;;;41.80;34.43;;;;;;;4.18;67.63;96259.97;5021699;28;20219;-70
2023/01/02 02:43:49;;;;;;;45.43;35.33;;;;;;;4.16;67.74;96259.22;5006464;28;20223;-67
2023/01/02 02:46:20;;;;;;;43.07;33.57;;;;;;;4.09;67.89;96257.88;5015281;28;20309;-67
2023/01/02 02:48:51;;;;;;;40.80;33.77;;;;;;;4.19;67.45;96247.81;5005721;28;20221;-66
2023/01/02 02:51:37;;;;;;;39.93;33.60;;;;;;;4.07;67.25;96248.47;5014543;28;20238;-67
2023/01/02 02:54:09;;;;;;;39.63;32.97;;;;;;;4.05;67.51;96245.94;5010524;28;20229;-67
2023/01/02 02:56:35;;;;;;;38.40;32.77;;;;;;;4.05;67.64;96238.13;5011880;28;20179;-67
2023/01/02 02:59:01;;;;;;;38.10;31.37;;;;;;;4.13;67.20;96240.34;5008544;28;20207;-66
2023/01/02 03:01:28;;;;;;;38.17;30.60;;;;;;;4.04;67.41;96246.03;5017618;28;20222;-66
2023/01/02 03:03:54;;;;;;;30.07;25.37;;;;;;;4.00;67.50;96227.13;5007252;28;20306;-67
2023/01/02 03:06:38;;;;;;;27.30;23.47;;;;;;;4.09;67.52;96231.00;5011690;28;20327;-67
2023/01/02 03:09:23;;;;;;;27.37;22.83;;;;;;;4.10;68.42;96227.47;5024708;28;20231;-67
2023/01/02 03:12:06;;;;;;;29.57;24.47;;;;;;;4.10;68.43;96217.06;5009379;28;20225;-67
2023/01/02 03:14:37;;;;;;;27.10;22.13;;;;;;;4.16;67.91;96211.53;5017914;28;20197;-66
2023/01/02 03:17:16;;;;;;;22.63;19.33;;;;;;;4.05;67.94;96219.06;5012839;28;20171;-67
2023/01/02 03:19:46;;;;;;;23.70;19.33;;;;;;;4.06;68.12;96211.16;5024382;28;20233;-66
2023/01/02 03:22:22;;;;;;;23.47;17.87;;;;;;;4.12;67.85;96216.06;5021796;28;20270;-67
2023/01/02 03:24:51;;;;;;;31.47;24.87;;;;;;;4.03;67.53;96219.16;5015663;28;20219;-66
2023/01/02 03:27:25;;;;;;;31.93;26.90;;;;;;;4.03;66.87;96219.16;5008262;28;20242;-67
2023/01/02 03:30:00;;;;;;;31.53;27.60;;;;;;;4.03;66.64;96219.16;5019496;28;20229;-67
2023/01/02 03:32:32;;;;;;;33.83;27.10;;;;;;;4.05;66.44;96226.88;5011738;28;20186;-66
2023/01/02 03:35:08;;;;;;;32.03;27.40;;;;;;;3.88;67.00;96226.03;5013748;28;20195;-67
2023/01/02 03:37:37;;;;;;;34.97;28.37;;;;;;;3.71;67.78;96232.09;5020311;28;20211;-67
2023/01/02 03:40:09;;;;;;;32.13;27.27;;;;;;;3.78;67.25;96230.03;5005080;28;20231;-67
2023/01/02 03:43:07;;;;;;;35.13;29.97;;;;;;;3.66;66.89;96243.66;5013834;28;20216;-67
2023/01/02 03:45:37;;;;;;;38.37;30.13;;;;;;;3.38;67.19;96242.50;5025961;28;20231;-67
2023/01/02 03:48:15;;;;;;;35.17;28.37;;;;;;;3.51;66.92;96255.72;5006541;28;20231;-67
2023/01/02 03:51:02;;;;;;;35.53;29.80;;;;;;;3.50;67.26;96247.06;5014658;28;20240;-67
2023/01/02 03:53:30;;;;;;;33.30;28.23;;;;;;;3.51;67.68;96250.50;5024503;28;20285;-67
2023/01/02 03:55:56;;;;;;;32.90;27.80;;;;;;;3.59;66.91;96253.56;5011732;28;20183;-67
2023/01/02 03:58:55;;;;;;;32.40;27.37;;;;;;;3.62;66.90;96262.97;5015651;28;20233;-67
2023/01/02 04:01:32;;;;;;;33.97;30.27;;;;;;;3.61;67.19;96259.53;4973238;28;20224;-67
2023/01/02 04:04:15;;;;;;;38.47;32.80;;;;;;;3.51;67.87;96256.56;4961500;28;20286;-67
2023/01/02 04:06:46;;;;;;;36.00;32.07;;;;;;;3.47;68.05;96255.00;4974318;28;20252;-67
2023/01/02 04:09:17;;;;;;;39.67;32.50;;;;;;;3.46;68.38;96268.09;4956173;28;20231;-67
2023/01/02 04:11:49;;;;;;;35.47;29.53;;;;;;;3.31;68.14;96262.78;4970066;28;20289;-67
2023/01/02 04:14:29;;;;;;;35.77;31.20;;;;;;;3.42;68.16;96266.56;4965697;28;20192;-67
2023/01/02 04:16:58;;;;;;;36.83;29.43;;;;;;;3.50;67.70;96273.09;4976849;28;20279;-67
2023/01/02 04:19:30;;;;;;;37.57;32.07;;;;;;;3.61;67.62;96266.47;4952899;28;20359;-67
2023/01/02 04:22:01;;;;;;;40.10;31.93;;;;;;;3.71;67.94;96273.72;4958300;28;20224;-67
2023/01/02 04:24:31;;;;;;;42.50;32.03;;;;;;;3.72;67.71;96277.19;4970984;28;20217;-67
2023/01/02 04:27:08;;;;;;;43.00;32.63;;;;;;;3.60;67.63;96285.59;4961277;28;20307;-67
2023/01/02 04:29:34;;;;;;;42.87;32.60;;;;;;;3.63;67.37;96277.66;4943713;28;20283;-67
2023/01/02 04:32:02;;;;;;;44.43;35.43;;;;;;;3.64;67.91;96276.75;4957423;28;20261;-67
2023/01/02 04:34:32;;;;;;;34.20;29.63;;;;;;;3.60;68.63;96280.41;4956996;28;20243;-67
2023/01/02 04:36:57;;;;;;;35.67;28.13;;;;;;;3.61;68.90;96282.94;4979658;28;20315;-67
2023/01/02 04:39:25;;;;;;;31.60;26.20;;;;;;;3.59;69.03;96284.78;5008889;28;20374;-66
2023/01/02 04:41:50;;;;;;;32.33;27.43;;;;;;;3.60;69.43;96276.03;5015854;28;20233;-66
2023/01/02 04:44:16;;;;;;;28.93;25.03;;;;;;;3.76;68.94;96284.72;5028045;28;20274;-67
2023/01/02 04:46:41;;;;;;;29.53;24.67;;;;;;;3.76;68.56;96292.53;5022014;28;20230;-67
2023/01/02 04:49:08;;;;;;;28.17;24.20;;;;;;;3.69;68.85;96287.75;5022086;28;20219;-67
2023/01/02 04:51:33;;;;;;;31.17;25.70;;;;;;;3.64;68.81;96284.53;5015841;28;20238;-67
2023/01/02 04:53:59;;;;;;;33.03;26.27;;;;;;;3.69;68.22;96283.38;4992879;28;20219;-67
2023/01/02 04:56:24;;;;;;;31.33;25.03;;;;;;;3.69;68.15;96274.75;5021077;28;20190;-66
2023/01/02 04:58:50;;;;;;;30.40;26.23;;;;;;;3.76;67.79;96276.94;5018443;28;20217;-67
2023/01/02 05:01:17;;;;;;;33.00;25.97;;;;;;;3.81;67.42;96281.91;5015205;28;20221;-66
2023/01/02 05:03:45;;;;;;;31.80;25.93;;;;;;;3.82;68.16;96288.78;5012972;28;20293;-66
2023/01/02 05:06:11;;;;;;;32.33;26.57;;;;;;;3.83;68.16;96279.22;5029587;28;20232;-66
2023/01/02 05:08:37;;;;;;;34.93;26.90;;;;;;;3.86;67.82;96282.50;5012884;28;20202;-66
2023/01/02 05:11:16;;;;;;;32.77;25.57;;;;;;;3.79;67.93;96280.28;5012823;28;20190;-67
2023/01/02 05:13:41;;;;;;;33.30;26.03;;;;;;;3.68;68.22;96281.69;5020657;28;20230;-67
2023/01/02 05:16:08;;;;;;;35.93;27.97;;;;;;;3.80;67.74;96288.03;5010173;28;20219;-67
2023/01/02 05:18:33;;;;;;;34.30;27.30;;;;;;;3.76;67.63;96282.13;5005307;28;20234;-67
2023/01/02 05:21:04;;;;;;;31.93;27.23;;;;;;;3.64;67.70;96271.53;5022028;28;20278;-67
2023/01/02 05:23:47;;;;;;;32.30;25.30;;;;;;;3.53;67.55;96275.53;5024454;28;20191;-67
2023/01/02 05:26:14;;;;;;;28.30;24.33;;;;;;;3.48;67.80;96276.69;5010983;28;20211;-67
2023/01/02 05:28:40;;;;;;;28.30;25.20;;;;;;;3.41;68.17;96268.34;5014298;28;20219;-67
2023/01/02 05:31:05;;;;;;;33.80;26.40;;;;;;;3.46;68.50;96265.50;5012189;28;20232;-67
2023/01/02 05:33:30;;;;;;;28.43;24.30;;;;;;;3.50;67.97;96270.47;5014433;28;20214;-67
2023/01/02 05:35:56;;;;;;;33.23;27.03;;;;;;;3.36;68.30;96269.47;5014392;28;20221;-67
2023/01/02 05:38:21;;;;;;;30.93;25.80;;;;;;;3.39;68.52;96272.75;5014074;28;20193;-67
2023/01/02 05:40:47;;;;;;;36.47;27.50;;;;;;;3.51;67.61;96272.16;5002554;28;20278;-67
2023/01/02 05:43:12;;;;;;;31.37;25.93;;;;;;;3.40;67.54;96266.66;4991962;28;20230;-67
2023/01/02 05:45:38;;;;;;;33.77;26.97;;;;;;;3.27;67.96;96256.03;4999288;28;20231;-67
2023/01/02 05:48:04;;;;;;;33.73;27.03;;;;;;;3.29;67.58;96255.97;5025159;28;20233;-67
2023/01/02 05:50:35;;;;;;;35.77;27.80;;;;;;;3.28;67.82;96264.66;4990057;28;20246;-67
2023/01/02 05:53:00;;;;;;;31.77;27.67;;;;;;;3.29;67.66;96267.19;5011392;28;20200;-67
2023/01/02 05:55:25;;;;;;;36.47;28.43;;;;;;;3.17;67.49;96266.97;5009317;28;20223;-67
2023/01/02 05:57:54;;;;;;;33.57;27.00;;;;;;;3.24;67.58;96274.38;4997209;28;20234;-67
2023/01/02 06:00:20;;;;;;;34.03;27.43;;;;;;;3.23;67.87;96277.03;5019487;28;20317;-67
2023/01/02 06:02:45;;;;;;;36.47;27.83;;;;;;;3.16;67.60;96267.91;5010429;28;20309;-67
2023/01/02 06:05:11;;;;;;;34.27;26.77;;;;;;;3.24;67.80;96279.59;5013843;28;20187;-67
2023/01/02 06:07:36;;;;;;;37.13;30.50;;;;;;;3.33;67.41;96273.06;5004732;28;20315;-67
2023/01/02 06:10:01;;;;;;;37.20;30.70;;;;;;;3.24;67.89;96281.34;5006353;28;20230;-67
2023/01/02 06:12:27;;;;;;;36.83;31.13;;;;;;;3.24;67.88;96283.94;5020796;28;20219;-67
2023/01/02 06:14:52;;;;;;;44.70;31.33;;;;;;;3.26;67.75;96287.28;5017858;28;20237;-67
2023/01/02 06:17:19;;;;;;;39.23;31.33;;;;;;;3.31;67.83;96288.78;5018883;28;20183;-67
2023/01/02 06:19:44;;;;;;;37.20;30.17;;;;;;;3.40;67.05;96292.66;5016511;28;20222;-67
2023/01/02 06:22:10;;;;;;;42.67;33.63;;;;;;;3.37;67.58;96300.63;5018893;28;20227;-67
2023/01/02 06:24:35;;;;;;;45.60;36.53;;;;;;;3.35;67.49;96305.03;5005478;28;20219;-65
2023/01/02 06:27:00;;;;;;;52.53;40.27;;;;;;;3.43;67.18;96309.88;5007883;28;20235;-65
2023/01/02 06:29:26;;;;;;;47.13;38.77;;;;;;;3.37;67.21;96313.63;5010102;28;20327;-67
2023/01/02 06:31:51;;;;;;;53.97;43.67;;;;;;;3.29;67.28;96308.78;5010876;28;20189;-65
2023/01/02 06:34:17;;;;;;;60.03;46.10;;;;;;;3.31;67.44;96313.91;5007657;28;20223;-65
2023/01/02 06:36:42;;;;;;;56.00;45.87;;;;;;;3.14;67.38;96312.13;5017206;28;20219;-65
2023/01/02 06:39:07;;;;;;;53.43;43.23;;;;;;;3.15;67.95;96319.00;4996121;28;20234;-65
2023/01/02 06:41:33;;;;;;;55.50;45.97;;;;;;;3.07;67.27;96313.34;5008147;28;20253;-65
2023/01/02 06:43:58;;;;;;;59.53;45.77;;;;;;;3.08;66.86;96312.44;5010624;28;20187;-68
2023/01/02 06:46:24;;;;;;;56.70;43.43;;;;;;;3.14;66.66;96306.09;5005560;28;20231;-68
2023/01/02 06:48:50;;;;;;;54.13;43.27;;;;;;;3.24;66.07;96307.34;5013456;28;20216;-68
2023/01/02 06:51:18;;;;;;;57.00;45.87;;;;;;;3.11;66.23;96306.25;5001276;28;20235;-68
2023/01/02 06:53:44;;;;;;;53.30;43.57;;;;;;;3.24;66.38;96315.13;5017813;28;20371;-66
2023/01/02 06:56:11;;;;;;;54.70;44.50;;;;;;;3.33;66.37;96311.25;5009076;28;20198;-65
2023/01/02 06:58:38;;;;;;;53.23;44.07;;;;;;;3.52;65.63;96314.59;5011961;28;20253;-65
2023/01/02 07:01:04;;;;;;;54.87;44.00;;;;;;;3.13;66.83;96317.41;5006304;28;20272;-66
2023/01/02 07:03:30;;;;;;;53.07;42.87;;;;;;;3.36;66.36;96318.88;5011424;28;20223;-66
2023/01/02 07:06:03;;;;;;;51.27;41.13;;;;;;;3.32;66.60;96315.59;5013808;28;20290;-66
2023/01/02 07:08:30;;;;;;;48.60;39.07;;;;;;;3.33;66.85;96314.69;5025134;28;20186;-66
2023/01/02 07:11:25;;;;;;;45.23;36.60;;;;;;;3.54;66.54;96312.78;5010067;28;20191;-67
2023/01/02 07:13:52;;;;;;;46.97;38.00;;;;;;;3.59;66.78;96315.16;5005275;28;20258;-66
2023/01/02 07:16:20;;;;;;;48.40;37.67;;;;;;;3.65;66.87;96313.06;5005015;28;20230;-66
2023/01/02 07:18:45;;;;;;;41.70;34.17;;;;;;;3.71;67.19;96320.53;5019956;28;20226;-67
2023/01/02 07:21:12;;;;;;;45.40;35.97;;;;;;;3.94;66.75;96321.97;4999560;28;20254;-67
2023/01/02 07:23:38;;;;;;;44.10;33.67;;;;;;;3.97;66.83;96316.63;5015698;28;20186;-66
2023/01/02 07:26:05;;;;;;;42.10;35.10;;;;;;;4.02;66.91;96323.34;5030898;28;20191;-66
2023/01/02 07:28:31;;;;;;;44.23;35.63;;;;;;;4.00;67.08;96315.63;5015754;28;20231;-66
2023/01/02 07:31:00;;;;;;;43.10;33.53;;;;;;;4.05;66.92;96324.03;5017630;28;20282;-66
2023/01/02 07:33:30;;;;;;;40.33;32.43;;;;;;;4.20;66.59;96323.22;5018041;28;20227;-67
2023/01/02 07:36:04;;;;;;;42.73;32.50;;;;;;;4.33;66.39;96315.63;5022342;28;20253;-67
2023/01/02 07:38:30;;;;;;;38.63;32.67;;;;;;;4.45;66.55;96321.91;5012890;28;20189;-66
2023/01/02 07:40:55;;;;;;;41.07;31.30;;;;;;;4.50;66.54;96322.50;5018629;28;20243;-67
2023/01/02 07:43:21;;;;;;;40.97;31.20;;;;;;;4.57;66.80;96316.06;5018498;28;20282;-67
2023/01/02 07:45:47;;;;;;;40.87;32.03;;;;;;;4.62;66.26;96313.19;4990806;28;20311;-67
2023/01/02 07:48:12;;;;;;;43.40;33.30;;;;;;;4.69;66.27;96316.31;5025276;28;20238;-67
2023/01/02 07:50:38;;;;;;;47.03;33.40;;;;;;;4.75;65.88;96308.16;5017022;28;20222;-67
2023/01/02 07:53:03;;;;;;;43.97;31.77;;;;;;;4.76;66.23;96310.69;5015767;28;20198;-67
2023/01/02 07:55:29;;;;;;;41.87;32.27;;;;;;;4.80;66.26;96327.81;5016273;28;20229;-67
2023/01/02 07:57:54;;;;;;;41.30;32.53;;;;;;;4.83;66.33;96321.59;5021505;28;20230;-67
2023/01/02 08:00:20;;;;;;;39.27;29.10;;;;;;;4.92;66.09;96325.44;5014789;28;20305;-67
2023/01/02 08:02:48;;;;;;;39.17;27.10;;;;;;;4.91;66.10;96318.56;5010447;28;20229;-67
2023/01/02 08:05:15;;;;;;;37.17;27.67;;;;;;;4.98;66.28;96318.16;5021063;28;20202;-67
2023/01/02 08:07:40;;;;;;;32.13;24.40;;;;;;;5.09;66.09;96322.75;4990087;28;20223;-67
2023/01/02 08:10:06;;;;;;;35.90;24.67;;;;;;;5.15;66.16;96324.19;5029082;28;20226;-68
2023/01/02 08:12:31;;;;;;;33.50;22.60;;;;;;;5.13;66.21;96319.03;5015593;28;20227;-67
2023/01/02 08:14:56;;;;;;;24.03;19.13;;;;;;;5.24;66.14;96321.91;5014779;28;20230;-67
2023/01/02 08:17:22;;;;;;;21.87;17.23;;;;;;;5.23;65.50;96320.19;5009021;28;20183;-67
2023/01/02 08:19:47;;;;;;;24.20;18.53;;;;;;;5.35;65.36;96310.03;5015440;28;20286;-67
2023/01/02 08:22:13;;;;;;;24.33;18.77;;;;;;;5.36;65.30;96312.53;5009687;28;20297;-67
2023/01/02 08:24:38;;;;;;;26.03;19.40;;;;;;;5.35;65.67;96310.03;5011672;28;20221;-67
2023/01/02 08:27:03;;;;;;;26.00;18.50;;;;;;;5.44;65.36;96307.69;5022206;28;20238;-67
2023/01/02 08:29:29;;;;;;;26.07;20.80;;;;;;;5.55;65.35;96306.25;5012800;28;20182;-67
2023/01/02 08:31:57;;;;;;;27.57;19.77;;;;;;;5.64;65.46;96306.56;5021528;28;20187;-67
2023/01/02 08:34:23;;;;;;;29.80;20.50;;;;;;;5.72;65.09;96312.16;5016702;28;20253;-67
2023/01/02 08:36:48;;;;;;;28.00;21.30;;;;;;;5.77;64.99;96298.00;5012374;28;20242;-67
2023/01/02 08:39:14;;;;;;;27.47;21.33;;;;;;;5.77;64.89;96305.81;5021753;28;20719;-67
2023/01/02 08:41:40;;;;;;;27.07;21.63;;;;;;;5.77;64.73;96309.25;5022816;28;20194;-67
2023/01/02 08:44:06;;;;;;;25.83;19.77;;;;;;;5.89;64.92;96305.94;5009257;28;20192;-67
2023/01/02 08:46:33;;;;;;;26.63;21.50;;;;;;;6.06;64.29;96309.34;5016868;28;20250;-67
2023/01/02 08:48:59;;;;;;;26.70;21.60;;;;;;;6.19;64.30;96300.66;5000081;28;20258;-66
2023/01/02 08:51:25;;;;;;;25.13;20.50;;;;;;;6.05;64.73;96298.06;5000618;28;20270;-67
2023/01/02 08:53:51;;;;;;;28.30;21.37;;;;;;;6.21;64.85;96310.19;5012328;28;20223;-67
2023/01/02 08:56:21;;;;;;;25.50;20.20;;;;;;;6.24;64.36;96291.72;5014120;28;20184;-67
2023/01/02 08:58:52;;;;;;;24.30;18.57;;;;;;;6.31;64.08;96288.63;5014865;28;20217;-67
2023/01/02 09:01:17;;;;;;;22.60;17.47;;;;;;;6.33;64.19;96285.91;5026653;28;20255;-67
2023/01/02 09:03:43;;;;;;;20.83;17.33;;;;;;;6.43;64.22;96286.19;5027460;28;20243;-67
2023/01/02 09:06:08;;;;;;;20.50;17.60;;;;;;;6.58;64.51;96280.03;5019899;28;20222;-67
2023/01/02 09:08:34;;;;;;;21.17;18.03;;;;;;;6.65;63.90;96270.00;5006654;28;20270;-67
2023/01/02 09:11:09;;;;;;;22.00;18.83;;;;;;;6.73;63.50;96271.19;5021130;28;20230;-67
2023/01/02 09:13:34;;;;;;;24.87;21.03;;;;;;;6.73;63.90;96271.19;5014167;28;20218;-66
2023/01/02 09:16:00;;;;;;;26.33;21.23;;;;;;;6.87;63.75;96272.94;5023644;28;20219;-65
2023/01/02 09:18:25;;;;;;;29.63;22.70;;;;;;;7.02;63.68;96266.72;5007579;28;20227;-66
2023/01/02 09:20:50;;;;;;;32.63;23.57;;;;;;;7.03;63.63;96259.69;5012311;28;20238;-66
2023/01/02 09:23:16;;;;;;;32.83;23.70;;;;;;;7.10;63.54;96262.75;5012316;28;20187;-67
2023/01/02 09:25:41;;;;;;;31.23;24.20;;;;;;;7.06;63.60;96255.13;5011519;28;20224;-67
2023/01/02 09:28:07;;;;;;;32.07;23.57;;;;;;;7.12;63.51;96247.81;5011973;28;20226;-66
2023/01/02 09:30:32;;;;;;;28.43;23.00;;;;;;;7.21;63.45;96248.03;5013042;28;20225;-67
2023/01/02 09:32:57;;;;;;;27.87;22.27;;;;;;;7.31;63.19;96240.44;5015299;28;20292;-67
2023/01/02 09:35:23;;;;;;;29.70;22.53;;;;;;;7.31;63.10;96245.66;5029807;28;20270;-67
2023/01/02 09:37:48;;;;;;;30.57;23.87;;;;;;;7.40;63.21;96237.19;5015553;28;20207;-67
2023/01/02 09:40:14;;;;;;;30.23;23.80;;;;;;;7.47;62.99;96232.41;5021540;28;20306;-67
2023/01/02 09:42:41;;;;;;;31.60;26.03;;;;;;;7.53;62.85;96231.16;5014863;28;20214;-67
2023/01/02 09:45:09;;;;;;;34.40;26.17;;;;;;;7.55;63.19;96224.03;5005962;28;20219;-67
2023/01/02 09:47:38;;;;;;;37.67;27.67;;;;;;;7.63;62.66;96222.56;5008439;28;20250;-67
2023/01/02 09:50:09;;;;;;;33.50;26.47;;;;;;;7.65;62.69;96227.72;5011461;28;20184;-67
2023/01/02 09:52:39;;;;;;;36.17;27.67;;;;;;;7.70;62.26;96218.59;5006930;28;20289;-67
2023/01/02 09:55:17;;;;;;;34.90;28.93;;;;;;;7.70;62.66;96210.75;4985502;28;20277;-66
2023/01/02 09:57:58;;;;;;;34.90;28.27;;;;;;;7.80;62.40;96205.69;4991358;28;20225;-66
2023/01/02 10:00:28;;;;;;;35.87;27.90;;;;;;;7.97;61.91;96208.97;4985082;28;20227;-67
2023/01/02 10:03:12;;;;;;;33.90;28.00;;;;;;;7.98;61.82;96200.97;4992385;28;20250;-67
2023/01/02 10:05:59;;;;;;;35.30;29.80;;;;;;;7.99;61.34;96193.94;5009760;28;20184;-67
2023/01/02 10:08:33;;;;;;;34.97;29.50;;;;;;;8.05;61.29;96196.16;5023454;28;20286;-67
2023/01/02 10:11:38;;;;;;;38.87;28.97;;;;;;;8.10;61.10;96194.03;5008479;28;20186;-67
2023/01/02 10:14:16;;;;;;;38.80;30.23;;;;;;;8.06;61.36;96176.88;5019142;28;20211;-67
2023/01/02 10:16:46;;;;;;;41.63;30.37;;;;;;;8.07;60.98;96179.38;5016844;28;20237;-67
2023/01/02 10:19:17;;;;;;;38.47;30.10;;;;;;;8.19;61.01;96182.91;5006088;28;20515;-67
2023/01/02 10:21:45;;;;;;;38.83;31.50;;;;;;;8.25;60.68;96171.16;5022010;28;20237;-67
2023/01/02 10:24:16;;;;;;;40.07;31.77;;;;;;;8.43;60.25;96175.13;5027312;28;20222;-67
2023/01/02 10:26:48;;;;;;;38.27;30.83;;;;;;;8.45;60.06;96167.16;5013860;28;20202;-67
2023/01/02 10:29:19;;;;;;;40.93;31.20;;;;;;;8.44;59.78;96161.06;5002251;28;20186;-66
2023/01/02 10:31:58;;;;;;;41.57;31.43;;;;;;;8.52;59.60;96161.34;5012493;28;20254;-67
2023/01/02 10:34:24;;;;;;;41.80;33.07;;;;;;;8.61;59.71;96160.69;5013866;28;20226;-66
2023/01/02 10:36:50;;;;;;;43.63;33.13;;;;;;;8.65;59.69;96160.47;5009784;28;20316;-66
2023/01/02 10:39:18;;;;;;;43.37;32.53;;;;;;;8.71;59.67;96162.63;5017316;28;20212;-66
2023/01/02 10:41:50;;;;;;;40.67;33.13;;;;;;;8.89;59.27;96168.31;5003270;28;20272;-67
2023/01/02 10:44:29;;;;;;;42.37;32.90;;;;;;;9.08;58.43;96166.00;5011550;28;20186;-67
2023/01/02 10:46:55;;;;;;;42.63;33.13;;;;;;;9.06;58.58;96162.63;5006440;28;20254;-67
2023/01/02 10:49:24;;;;;;;42.77;33.37;;;;;;;9.04;58.75;96149.66;5014152;28;20219;-67
2023/01/02 10:52:19;;;;;;;39.50;31.57;;;;;;;9.20;58.14;96154.59;5023565;28;20242;-68
2023/01/02 10:54:55;;;;;;;42.83;34.13;;;;;;;9.33;58.09;96146.63;4952980;28;20310;-68
2023/01/02 10:57:39;;;;;;;39.90;34.73;;;;;;;9.48;57.37;96142.00;4977304;28;20262;-68
2023/01/02 11:00:07;;;;;;;45.23;35.63;;;;;;;9.58;56.85;96136.88;4977427;28;20219;-68
2023/01/02 11:02:38;;;;;;;48.37;36.90;;;;;;;9.74;56.23;96136.53;4968681;28;20307;-68
2023/01/02 11:05:07;;;;;;;44.30;36.97;;;;;;;9.75;56.27;96114.56;4976743;28;20199;-68
2023/01/02 11:07:38;;;;;;;47.53;38.67;;;;;;;9.65;56.43;96117.91;4960034;28;20224;-69
2023/01/02 11:10:20;;;;;;;46.17;38.83;;;;;;;9.57;56.80;96116.81;4951303;28;20370;-71
2023/01/02 11:12:46;;;;;;;46.23;38.63;;;;;;;9.53;57.35;96110.13;4951745;28;20350;-70
2023/01/02 11:15:13;;;;;;;43.63;37.37;;;;;;;9.70;57.45;96105.25;4963409;28;20238;-71
2023/01/02 11:17:42;;;;;;;49.27;39.70;;;;;;;9.82;57.24;96107.88;4957709;28;20188;-70
2023/01/02 11:20:25;;;;;;;44.00;35.87;;;;;;;9.99;56.41;96098.66;4943738;28;20196;-71
2023/01/02 11:22:53;;;;;;;47.73;39.50;;;;;;;10.02;56.84;96099.22;4956967;28;20235;-71
2023/01/02 11:25:35;;;;;;;47.50;38.43;;;;;;;10.03;56.30;96108.81;4955461;28;20224;-71
2023/01/02 11:28:02;;;;;;;45.03;37.60;;;;;;;10.14;56.52;96098.28;4954832;28;20337;-72
2023/01/02 11:30:35;;;;;;;44.77;37.37;;;;;;;10.09;56.36;96103.06;4959559;28;20224;-70
2023/01/02 11:33:18;;;;;;;44.30;37.20;;;;;;;10.30;55.71;96092.66;5031891;28;20222;-69
2023/01/02 11:35:50;;;;;;;44.63;35.87;;;;;;;10.49;55.43;96086.75;5004459;28;20199;-70